sensor_id;sensor_type;location;lat;lon;timestamp;pressure;altitude;pressure_sealevel;temperature;humidity
34124;BME280;13153;52.316;21.166;2023-03-03T00:01:30;100766.44;;;3.45;58.85
34124;BME280;13153;52.316;21.166;2023-03-03T00:03:58;100760.25;;;3.43;58.37
34124;BME280;13153;52.316;21.166;2023-03-03T00:06:24;100769.94;;;3.46;58.48
34124;BME280;13153;52.316;21.166;2023-03-03T00:08:51;100759.69;;;3.49;58.58
34124;BME280;13153;52.316;21.166;2023-03-03T00:11:18;100758.16;;;3.52;58.30
34124;BME280;13153;52.316;21.166;2023-03-03T00:13:48;100760.97;;;3.55;58.24
34124;BME280;13153;52.316;21.166;2023-03-03T00:16:34;100756.66;;;3.56;58.47
34124;BME280;13153;52.316;21.166;2023-03-03T00:19:02;100755.75;;;3.55;58.76
34124;BME280;13153;52.316;21.166;2023-03-03T00:21:41;100743.81;;;3.59;59.22
34124;BME280;13153;52.316;21.166;2023-03-03T00:26:44;100736.47;;;3.67;59.03
34124;BME280;13153;52.316;21.166;2023-03-03T00:29:47;100733.25;;;3.71;59.02
34124;BME280;13153;52.316;21.166;2023-03-03T00:34:44;100733.97;;;3.68;59.51
34124;BME280;13153;52.316;21.166;2023-03-03T00:37:29;100729.75;;;3.70;59.93
34124;BME280;13153;52.316;21.166;2023-03-03T00:42:55;100716.84;;;3.72;59.99
34124;BME280;13153;52.316;21.166;2023-03-03T00:48:30;100703.81;;;3.72;60.26
34124;BME280;13153;52.316;21.166;2023-03-03T00:51:01;100706.44;;;3.72;60.18
34124;BME280;13153;52.316;21.166;2023-03-03T00:53:36;100715.13;;;3.72;59.67
34124;BME280;13153;52.316;21.166;2023-03-03T00:56:02;100709.94;;;3.72;60.06
34124;BME280;13153;52.316;21.166;2023-03-03T00:58:28;100705.72;;;3.74;60.75
34124;BME280;13153;52.316;21.166;2023-03-03T01:00:54;100702.28;;;3.75;60.44
34124;BME280;13153;52.316;21.166;2023-03-03T01:03:23;100712.00;;;3.78;60.26
34124;BME280;13153;52.316;21.166;2023-03-03T01:05:51;100699.06;;;3.79;60.57
34124;BME280;13153;52.316;21.166;2023-03-03T01:08:18;100692.97;;;3.79;60.84
34124;BME280;13153;52.316;21.166;2023-03-03T01:11:06;100687.03;;;3.81;60.96
34124;BME280;13153;52.316;21.166;2023-03-03T01:13:35;100686.41;;;3.85;60.64
34124;BME280;13153;52.316;21.166;2023-03-03T01:16:03;100677.88;;;3.88;60.26
34124;BME280;13153;52.316;21.166;2023-03-03T01:18:29;100677.97;;;3.89;60.26
34124;BME280;13153;52.316;21.166;2023-03-03T01:20:55;100666.75;;;3.90;60.63
34124;BME280;13153;52.316;21.166;2023-03-03T01:23:21;100670.16;;;3.89;60.22
34124;BME280;13153;52.316;21.166;2023-03-03T01:25:47;100665.84;;;3.90;60.49
34124;BME280;13153;52.316;21.166;2023-03-03T01:28:13;100664.97;;;3.89;60.51
34124;BME280;13153;52.316;21.166;2023-03-03T01:30:39;100672.69;;;3.88;60.46
34124;BME280;13153;52.316;21.166;2023-03-03T01:33:05;100664.88;;;3.88;60.56
34124;BME280;13153;52.316;21.166;2023-03-03T01:35:31;100660.56;;;3.88;60.28
34124;BME280;13153;52.316;21.166;2023-03-03T01:37:57;100650.16;;;3.88;59.78
34124;BME280;13153;52.316;21.166;2023-03-03T01:40:34;100649.34;;;3.89;59.88
34124;BME280;13153;52.316;21.166;2023-03-03T01:43:00;100650.06;;;3.87;60.23
34124;BME280;13153;52.316;21.166;2023-03-03T01:48:22;100650.88;;;3.86;59.86
34124;BME280;13153;52.316;21.166;2023-03-03T01:50:54;100646.38;;;3.83;60.27
34124;BME280;13153;52.316;21.166;2023-03-03T01:56:06;100648.34;;;3.87;60.08
34124;BME280;13153;52.316;21.166;2023-03-03T01:58:45;100645.28;;;3.94;59.99
34124;BME280;13153;52.316;21.166;2023-03-03T02:01:26;100645.47;;;3.97;59.94
34124;BME280;13153;52.316;21.166;2023-03-03T02:03:53;100640.44;;;4.01;60.75
34124;BME280;13153;52.316;21.166;2023-03-03T02:06:27;100646.72;;;4.04;60.43
34124;BME280;13153;52.316;21.166;2023-03-03T02:09:01;100643.22;;;4.04;60.27
34124;BME280;13153;52.316;21.166;2023-03-03T02:11:32;100636.44;;;4.07;60.31
34124;BME280;13153;52.316;21.166;2023-03-03T02:14:00;100649.47;;;4.07;59.93
34124;BME280;13153;52.316;21.166;2023-03-03T02:16:26;100645.16;;;4.08;60.49
34124;BME280;13153;52.316;21.166;2023-03-03T02:18:52;100631.97;;;4.05;60.39
34124;BME280;13153;52.316;21.166;2023-03-03T02:21:21;100638.00;;;4.04;59.96
34124;BME280;13153;52.316;21.166;2023-03-03T02:27:12;100643.03;;;4.01;60.15
34124;BME280;13153;52.316;21.166;2023-03-03T02:29:39;100646.47;;;4.00;60.27
34124;BME280;13153;52.316;21.166;2023-03-03T02:32:05;100641.06;;;3.96;60.52
34124;BME280;13153;52.316;21.166;2023-03-03T02:34:41;100649.69;;;3.95;60.57
34124;BME280;13153;52.316;21.166;2023-03-03T02:37:08;100641.72;;;3.92;60.51
34124;BME280;13153;52.316;21.166;2023-03-03T02:39:34;100640.72;;;3.90;60.15
34124;BME280;13153;52.316;21.166;2023-03-03T02:42:06;100635.44;;;3.89;59.97
34124;BME280;13153;52.316;21.166;2023-03-03T02:44:34;100629.88;;;3.83;60.00
34124;BME280;13153;52.316;21.166;2023-03-03T02:47:00;100634.91;;;3.80;59.65
34124;BME280;13153;52.316;21.166;2023-03-03T02:49:33;100628.00;;;3.80;60.41
34124;BME280;13153;52.316;21.166;2023-03-03T02:52:02;100630.69;;;3.82;59.64
34124;BME280;13153;52.316;21.166;2023-03-03T02:54:29;100623.41;;;3.76;60.14
34124;BME280;13153;52.316;21.166;2023-03-03T02:56:56;100618.03;;;3.73;60.00
34124;BME280;13153;52.316;21.166;2023-03-03T02:59:23;100621.38;;;3.71;59.90
34124;BME280;13153;52.316;21.166;2023-03-03T03:01:50;100617.59;;;3.65;60.21
34124;BME280;13153;52.316;21.166;2023-03-03T03:04:20;100607.91;;;3.63;59.82
34124;BME280;13153;52.316;21.166;2023-03-03T03:06:47;100612.94;;;3.60;59.97
34124;BME280;13153;52.316;21.166;2023-03-03T03:09:15;100612.03;;;3.59;60.32
34124;BME280;13153;52.316;21.166;2023-03-03T03:11:41;100609.34;;;3.58;60.62
34124;BME280;13153;52.316;21.166;2023-03-03T03:14:10;100607.47;;;3.55;60.51
34124;BME280;13153;52.316;21.166;2023-03-03T03:16:36;100611.69;;;3.53;60.61
34124;BME280;13153;52.316;21.166;2023-03-03T03:19:04;100613.31;;;3.51;60.59
34124;BME280;13153;52.316;21.166;2023-03-03T03:21:31;100613.94;;;3.47;60.64
34124;BME280;13153;52.316;21.166;2023-03-03T03:23:57;100611.19;;;3.44;61.02
34124;BME280;13153;52.316;21.166;2023-03-03T03:26:23;100608.59;;;3.44;61.35
34124;BME280;13153;52.316;21.166;2023-03-03T03:28:50;100612.72;;;3.41;61.13
34124;BME280;13153;52.316;21.166;2023-03-03T03:31:18;100613.44;;;3.38;60.37
34124;BME280;13153;52.316;21.166;2023-03-03T03:33:45;100613.53;;;3.40;60.71
34124;BME280;13153;52.316;21.166;2023-03-03T03:36:11;100619.53;;;3.39;61.12
34124;BME280;13153;52.316;21.166;2023-03-03T03:38:37;100621.50;;;3.43;60.75
34124;BME280;13153;52.316;21.166;2023-03-03T03:41:05;100618.91;;;3.43;60.91
34124;BME280;13153;52.316;21.166;2023-03-03T03:43:32;100609.31;;;3.42;60.65
34124;BME280;13153;52.316;21.166;2023-03-03T03:45:58;100615.41;;;3.42;61.07
34124;BME280;13153;52.316;21.166;2023-03-03T03:48:24;100594.50;;;3.41;60.92
34124;BME280;13153;52.316;21.166;2023-03-03T03:50:50;100588.41;;;3.40;60.80
34124;BME280;13153;52.316;21.166;2023-03-03T03:53:17;100593.78;;;3.43;61.15
34124;BME280;13153;52.316;21.166;2023-03-03T03:55:44;100599.06;;;3.45;61.32
34124;BME280;13153;52.316;21.166;2023-03-03T03:58:13;100602.50;;;3.44;61.02
34124;BME280;13153;52.316;21.166;2023-03-03T04:00:41;100594.59;;;3.42;60.74
34124;BME280;13153;52.316;21.166;2023-03-03T04:03:08;100594.50;;;3.41;61.06
34124;BME280;13153;52.316;21.166;2023-03-03T04:05:34;100585.72;;;3.39;61.07
34124;BME280;13153;52.316;21.166;2023-03-03T04:08:00;100597.03;;;3.39;60.91
34124;BME280;13153;52.316;21.166;2023-03-03T04:10:26;100590.81;;;3.37;61.26
34124;BME280;13153;52.316;21.166;2023-03-03T04:12:51;100588.13;;;3.36;60.93
34124;BME280;13153;52.316;21.166;2023-03-03T04:15:17;100580.25;;;3.34;61.22
34124;BME280;13153;52.316;21.166;2023-03-03T04:17:43;100589.94;;;3.37;61.15
34124;BME280;13153;52.316;21.166;2023-03-03T04:20:13;100582.13;;;3.37;61.02
34124;BME280;13153;52.316;21.166;2023-03-03T04:22:40;100576.75;;;3.34;60.70
34124;BME280;13153;52.316;21.166;2023-03-03T04:25:08;100567.06;;;3.31;60.88
34124;BME280;13153;52.316;21.166;2023-03-03T04:27:35;100578.44;;;3.33;60.63
34124;BME280;13153;52.316;21.166;2023-03-03T04:30:04;100563.75;;;3.34;60.81
34124;BME280;13153;52.316;21.166;2023-03-03T04:32:30;100566.34;;;3.34;61.18
34124;BME280;13153;52.316;21.166;2023-03-03T04:34:58;100566.34;;;3.34;61.11
34124;BME280;13153;52.316;21.166;2023-03-03T04:37:24;100564.56;;;3.33;61.19
34124;BME280;13153;52.316;21.166;2023-03-03T04:39:50;100568.06;;;3.33;60.87
34124;BME280;13153;52.316;21.166;2023-03-03T04:42:16;100558.28;;;3.29;60.61
34124;BME280;13153;52.316;21.166;2023-03-03T04:44:41;100555.59;;;3.27;60.90
34124;BME280;13153;52.316;21.166;2023-03-03T04:47:07;100555.31;;;3.23;60.71
34124;BME280;13153;52.316;21.166;2023-03-03T04:49:33;100555.22;;;3.21;61.02
34124;BME280;13153;52.316;21.166;2023-03-03T04:51:59;100556.84;;;3.19;60.99
34124;BME280;13153;52.316;21.166;2023-03-03T04:54:25;100554.97;;;3.17;61.13
34124;BME280;13153;52.316;21.166;2023-03-03T04:56:51;100547.97;;;3.16;61.07
34124;BME280;13153;52.316;21.166;2023-03-03T04:59:16;100546.19;;;3.15;61.10
34124;BME280;13153;52.316;21.166;2023-03-03T05:01:42;100547.88;;;3.14;61.16
34124;BME280;13153;52.316;21.166;2023-03-03T05:04:08;100540.00;;;3.13;60.89
34124;BME280;13153;52.316;21.166;2023-03-03T05:06:34;100548.69;;;3.13;60.98
34124;BME280;13153;52.316;21.166;2023-03-03T05:08:59;100547.88;;;3.14;61.32
34124;BME280;13153;52.316;21.166;2023-03-03T05:11:25;100548.78;;;3.15;61.01
34124;BME280;13153;52.316;21.166;2023-03-03T05:13:51;100548.69;;;3.13;60.32
34124;BME280;13153;52.316;21.166;2023-03-03T05:16:17;100544.38;;;3.14;60.90
34124;BME280;13153;52.316;21.166;2023-03-03T05:18:43;100547.16;;;3.17;60.88
34124;BME280;13153;52.316;21.166;2023-03-03T05:21:10;100550.66;;;3.17;61.33
34124;BME280;13153;52.316;21.166;2023-03-03T05:23:36;100549.22;;;3.22;61.15
34124;BME280;13153;52.316;21.166;2023-03-03T05:26:02;100540.63;;;3.23;60.86
34124;BME280;13153;52.316;21.166;2023-03-03T05:28:29;100541.59;;;3.25;61.07
34124;BME280;13153;52.316;21.166;2023-03-03T05:30:55;100540.97;;;3.29;61.29
34124;BME280;13153;52.316;21.166;2023-03-03T05:33:21;100535.16;;;3.34;61.23
34124;BME280;13153;52.316;21.166;2023-03-03T05:35:46;100542.66;;;3.44;60.95
34124;BME280;13153;52.316;21.166;2023-03-03T05:38:12;100549.16;;;3.52;61.15
34124;BME280;13153;52.316;21.166;2023-03-03T05:40:38;100540.00;;;3.58;60.64
34124;BME280;13153;52.316;21.166;2023-03-03T05:43:04;100542.25;;;3.67;60.93
34124;BME280;13153;52.316;21.166;2023-03-03T05:45:30;100539.69;;;3.83;60.86
34124;BME280;13153;52.316;21.166;2023-03-03T05:47:56;100531.03;;;3.99;60.90
34124;BME280;13153;52.316;21.166;2023-03-03T05:50:22;100537.75;;;4.12;60.65
34124;BME280;13153;52.316;21.166;2023-03-03T05:52:50;100534.13;;;4.24;60.92
34124;BME280;13153;52.316;21.166;2023-03-03T05:55:17;100531.69;;;4.44;60.69
34124;BME280;13153;52.316;21.166;2023-03-03T05:57:43;100534.13;;;4.57;60.12
34124;BME280;13153;52.316;21.166;2023-03-03T06:00:11;100533.53;;;4.62;59.44
34124;BME280;13153;52.316;21.166;2023-03-03T06:02:38;100524.41;;;4.71;59.76
34124;BME280;13153;52.316;21.166;2023-03-03T06:05:05;100527.31;;;4.77;59.25
34124;BME280;13153;52.316;21.166;2023-03-03T06:07:31;100529.09;;;4.78;59.38
34124;BME280;13153;52.316;21.166;2023-03-03T06:09:57;100525.44;;;4.74;58.68
34124;BME280;13153;52.316;21.166;2023-03-03T06:12:23;100534.00;;;4.72;59.15
34124;BME280;13153;52.316;21.166;2023-03-03T06:14:48;100529.69;;;4.72;59.27
34124;BME280;13153;52.316;21.166;2023-03-03T06:17:14;100536.13;;;4.79;58.63
34124;BME280;13153;52.316;21.166;2023-03-03T06:19:40;100544.91;;;4.81;58.85
34124;BME280;13153;52.316;21.166;2023-03-03T06:22:07;100534.97;;;4.90;59.47
34124;BME280;13153;52.316;21.166;2023-03-03T06:24:33;100536.91;;;4.94;59.11
34124;BME280;13153;52.316;21.166;2023-03-03T06:27:00;100533.75;;;5.17;59.62
34124;BME280;13153;52.316;21.166;2023-03-03T06:29:27;100534.59;;;5.52;59.14
34124;BME280;13153;52.316;21.166;2023-03-03T06:31:53;100522.16;;;5.83;58.09
34124;BME280;13153;52.316;21.166;2023-03-03T06:34:19;100514.16;;;6.16;57.65
34124;BME280;13153;52.316;21.166;2023-03-03T06:36:45;100524.19;;;6.45;56.67
34124;BME280;13153;52.316;21.166;2023-03-03T06:39:11;100527.00;;;6.69;55.57
34124;BME280;13153;52.316;21.166;2023-03-03T06:41:37;100519.16;;;6.69;54.46
34124;BME280;13153;52.316;21.166;2023-03-03T06:44:03;100528.88;;;6.52;54.34
34124;BME280;13153;52.316;21.166;2023-03-03T06:46:30;100526.38;;;6.36;54.64
34124;BME280;13153;52.316;21.166;2023-03-03T06:48:55;100535.19;;;6.19;55.17
34124;BME280;13153;52.316;21.166;2023-03-03T06:53:57;100531.94;;;5.87;56.60
34124;BME280;13153;52.316;21.166;2023-03-03T06:56:25;100536.72;;;5.78;56.49
34124;BME280;13153;52.316;21.166;2023-03-03T06:58:57;100536.59;;;5.75;57.10
34124;BME280;13153;52.316;21.166;2023-03-03T07:01:27;100537.56;;;5.77;57.06
34124;BME280;13153;52.316;21.166;2023-03-03T07:03:55;100544.28;;;5.72;56.73
34124;BME280;13153;52.316;21.166;2023-03-03T07:06:24;100545.91;;;5.70;57.04
34124;BME280;13153;52.316;21.166;2023-03-03T07:08:52;100546.00;;;5.72;57.37
34124;BME280;13153;52.316;21.166;2023-03-03T07:11:22;100553.69;;;5.69;57.71
34124;BME280;13153;52.316;21.166;2023-03-03T07:13:51;100536.69;;;5.59;57.41
34124;BME280;13153;52.316;21.166;2023-03-03T07:16:21;100538.91;;;5.51;57.21
34124;BME280;13153;52.316;21.166;2023-03-03T07:18:55;100532.56;;;5.46;57.58
34124;BME280;13153;52.316;21.166;2023-03-03T07:21:34;100530.47;;;5.39;57.79
34124;BME280;13153;52.316;21.166;2023-03-03T07:24:28;100526.66;;;5.32;58.15
34124;BME280;13153;52.316;21.166;2023-03-03T07:27:10;100532.41;;;5.25;58.13
34124;BME280;13153;52.316;21.166;2023-03-03T07:29:37;100527.66;;;5.17;58.17
34124;BME280;13153;52.316;21.166;2023-03-03T07:32:23;100526.81;;;5.36;58.41
34124;BME280;13153;52.316;21.166;2023-03-03T07:34:53;100525.63;;;5.47;58.10
34124;BME280;13153;52.316;21.166;2023-03-03T07:37:34;100528.31;;;5.48;58.01
34124;BME280;13153;52.316;21.166;2023-03-03T07:42:57;100541.75;;;5.56;58.27
34124;BME280;13153;52.316;21.166;2023-03-03T07:45:34;100545.78;;;5.67;57.63
34124;BME280;13153;52.316;21.166;2023-03-03T07:48:23;100540.03;;;5.74;57.97
34124;BME280;13153;52.316;21.166;2023-03-03T07:50:50;100543.38;;;5.72;57.62
34124;BME280;13153;52.316;21.166;2023-03-03T07:53:42;100548.69;;;5.73;57.93
34124;BME280;13153;52.316;21.166;2023-03-03T07:56:27;100545.31;;;5.58;57.88
34124;BME280;13153;52.316;21.166;2023-03-03T07:58:54;100544.28;;;5.54;58.01
34124;BME280;13153;52.316;21.166;2023-03-03T08:01:45;100553.81;;;5.54;58.12
34124;BME280;13153;52.316;21.166;2023-03-03T08:04:41;100550.53;;;5.58;58.24
34124;BME280;13153;52.316;21.166;2023-03-03T08:07:25;100568.34;;;5.49;59.01
34124;BME280;13153;52.316;21.166;2023-03-03T08:10:02;100572.44;;;5.44;59.35
34124;BME280;13153;52.316;21.166;2023-03-03T08:12:42;100566.72;;;5.51;59.26
34124;BME280;13153;52.316;21.166;2023-03-03T08:15:19;100571.50;;;5.59;59.30
34124;BME280;13153;52.316;21.166;2023-03-03T08:17:47;100577.25;;;5.70;59.39
34124;BME280;13153;52.316;21.166;2023-03-03T08:20:35;100579.44;;;5.80;59.18
34124;BME280;13153;52.316;21.166;2023-03-03T08:23:03;100584.59;;;5.79;59.20
34124;BME280;13153;52.316;21.166;2023-03-03T08:25:29;100580.41;;;5.82;59.25
34124;BME280;13153;52.316;21.166;2023-03-03T08:27:55;100595.50;;;5.88;59.03
34124;BME280;13153;52.316;21.166;2023-03-03T08:30:21;100627.72;;;5.88;58.83
34124;BME280;13153;52.316;21.166;2023-03-03T08:32:47;100625.63;;;5.81;58.83
34124;BME280;13153;52.316;21.166;2023-03-03T08:35:13;100629.06;;;5.80;58.88
34124;BME280;13153;52.316;21.166;2023-03-03T08:37:39;100624.81;;;5.82;58.56
34124;BME280;13153;52.316;21.166;2023-03-03T08:40:05;100616.81;;;5.79;58.28
34124;BME280;13153;52.316;21.166;2023-03-03T08:42:31;100620.34;;;5.80;58.42
34124;BME280;13153;52.316;21.166;2023-03-03T08:44:57;100611.59;;;5.79;58.72
34124;BME280;13153;52.316;21.166;2023-03-03T08:47:23;100606.47;;;5.81;58.62
34124;BME280;13153;52.316;21.166;2023-03-03T08:49:49;100609.81;;;5.78;58.03
34124;BME280;13153;52.316;21.166;2023-03-03T08:52:14;100603.84;;;5.81;58.74
34124;BME280;13153;52.316;21.166;2023-03-03T08:54:40;100604.34;;;5.90;58.41
34124;BME280;13153;52.316;21.166;2023-03-03T08:57:06;100593.69;;;5.87;58.17
34124;BME280;13153;52.316;21.166;2023-03-03T08:59:32;100598.69;;;5.82;57.86
34124;BME280;13153;52.316;21.166;2023-03-03T09:02:02;100593.63;;;5.85;58.46
34124;BME280;13153;52.316;21.166;2023-03-03T09:04:28;100602.22;;;5.83;58.09
34124;BME280;13153;52.316;21.166;2023-03-03T09:06:54;100618.75;;;5.83;58.43
34124;BME280;13153;52.316;21.166;2023-03-03T09:09:19;100606.53;;;5.82;58.86
34124;BME280;13153;52.316;21.166;2023-03-03T09:11:45;100611.81;;;5.84;58.42
34124;BME280;13153;52.316;21.166;2023-03-03T09:14:17;100604.06;;;5.85;58.29
34124;BME280;13153;52.316;21.166;2023-03-03T09:16:51;100605.16;;;5.89;58.46
34124;BME280;13153;52.316;21.166;2023-03-03T09:19:38;100596.31;;;5.87;58.24
34124;BME280;13153;52.316;21.166;2023-03-03T09:22:24;100588.75;;;5.91;58.55
34124;BME280;13153;52.316;21.166;2023-03-03T09:24:56;100573.28;;;5.96;57.97
34124;BME280;13153;52.316;21.166;2023-03-03T09:27:36;100567.31;;;5.99;57.95
34124;BME280;13153;52.316;21.166;2023-03-03T09:30:29;100562.16;;;6.00;57.84
34124;BME280;13153;52.316;21.166;2023-03-03T09:32:57;100562.09;;;5.99;57.73
34124;BME280;13153;52.316;21.166;2023-03-03T09:38:09;100548.81;;;5.94;57.49
34124;BME280;13153;52.316;21.166;2023-03-03T09:41:11;100541.88;;;5.94;57.85
34124;BME280;13153;52.316;21.166;2023-03-03T09:50:53;100554.59;;;5.88;57.73
34124;BME280;13153;52.316;21.166;2023-03-03T09:55:43;100551.28;;;5.91;57.75
34124;BME280;13153;52.316;21.166;2023-03-03T10:04:43;100564.84;;;5.84;57.95
34124;BME280;13153;52.316;21.166;2023-03-03T10:10:15;100571.84;;;5.85;58.15
34124;BME280;13153;52.316;21.166;2023-03-03T10:12:56;100569.16;;;5.83;58.12
34124;BME280;13153;52.316;21.166;2023-03-03T10:15:51;100576.25;;;5.86;58.14
34124;BME280;13153;52.316;21.166;2023-03-03T10:21:10;100579.69;;;5.85;57.79
34124;BME280;13153;52.316;21.166;2023-03-03T10:24:21;100572.59;;;5.82;57.82
34124;BME280;13153;52.316;21.166;2023-03-03T10:27:06;100571.69;;;5.82;57.81
34124;BME280;13153;52.316;21.166;2023-03-03T10:32:45;100572.88;;;5.88;57.67
34124;BME280;13153;52.316;21.166;2023-03-03T10:40:42;100574.03;;;5.93;57.84
34124;BME280;13153;52.316;21.166;2023-03-03T10:46:27;100581.72;;;5.90;57.40
34124;BME280;13153;52.316;21.166;2023-03-03T11:16:18;100567.53;;;5.68;57.99
34124;BME280;13153;52.316;21.166;2023-03-03T11:21:46;100557.63;;;5.60;58.17
34124;BME280;13153;52.316;21.166;2023-03-03T11:36:08;100551.06;;;5.51;58.60
34124;BME280;13153;52.316;21.166;2023-03-03T11:38:56;100558.72;;;5.48;58.59
34124;BME280;13153;52.316;21.166;2023-03-03T11:41:41;100548.22;;;5.46;58.57
34124;BME280;13153;52.316;21.166;2023-03-03T11:44:54;100548.06;;;5.43;58.63
34124;BME280;13153;52.316;21.166;2023-03-03T11:48:05;100554.34;;;5.47;58.89
34124;BME280;13153;52.316;21.166;2023-03-03T11:50:42;100560.31;;;5.44;58.49
34124;BME280;13153;52.316;21.166;2023-03-03T11:53:49;100556.78;;;5.44;59.16
34124;BME280;13153;52.316;21.166;2023-03-03T11:56:27;100567.38;;;5.47;59.17
34124;BME280;13153;52.316;21.166;2023-03-03T12:01:59;100551.88;;;5.50;59.15
34124;BME280;13153;52.316;21.166;2023-03-03T12:04:40;100554.56;;;5.51;59.22
34124;BME280;13153;52.316;21.166;2023-03-03T12:10:28;100558.34;;;5.40;59.08
34124;BME280;13153;52.316;21.166;2023-03-03T12:19:33;100555.50;;;5.36;59.59
34124;BME280;13153;52.316;21.166;2023-03-03T12:22:50;100556.03;;;5.28;59.38
34124;BME280;13153;52.316;21.166;2023-03-03T12:25:35;100557.00;;;5.30;59.88
34124;BME280;13153;52.316;21.166;2023-03-03T12:28:27;100564.00;;;5.31;59.44
34124;BME280;13153;52.316;21.166;2023-03-03T12:34:17;100556.19;;;5.31;59.93
34124;BME280;13153;52.316;21.166;2023-03-03T12:40:04;100555.75;;;5.40;59.74
34124;BME280;13153;52.316;21.166;2023-03-03T12:46:18;100550.09;;;5.49;59.24
34124;BME280;13153;52.316;21.166;2023-03-03T12:48:46;100542.94;;;5.45;59.15
34124;BME280;13153;52.316;21.166;2023-03-03T12:51:15;100538.59;;;5.45;59.10
34124;BME280;13153;52.316;21.166;2023-03-03T12:54:18;100543.31;;;5.52;58.90
34124;BME280;13153;52.316;21.166;2023-03-03T12:57:02;100543.81;;;5.45;58.92
34124;BME280;13153;52.316;21.166;2023-03-03T12:59:43;100547.41;;;5.47;58.66
34124;BME280;13153;52.316;21.166;2023-03-03T13:05:08;100539.66;;;5.49;58.45
34124;BME280;13153;52.316;21.166;2023-03-03T13:14:14;100540.84;;;5.55;58.81
34124;BME280;13153;52.316;21.166;2023-03-03T13:17:17;100546.81;;;5.53;58.77
34124;BME280;13153;52.316;21.166;2023-03-03T13:20:04;100544.88;;;5.49;58.94
34124;BME280;13153;52.316;21.166;2023-03-03T13:22:40;100543.97;;;5.48;58.67
34124;BME280;13153;52.316;21.166;2023-03-03T13:25:39;100552.03;;;5.53;58.70
34124;BME280;13153;52.316;21.166;2023-03-03T13:28:34;100545.91;;;5.52;58.57
34124;BME280;13153;52.316;21.166;2023-03-03T13:31:14;100539.72;;;5.50;58.91
34124;BME280;13153;52.316;21.166;2023-03-03T13:33:50;100540.47;;;5.48;59.11
34124;BME280;13153;52.316;21.166;2023-03-03T13:36:23;100541.44;;;5.50;58.63
34124;BME280;13153;52.316;21.166;2023-03-03T13:38:55;100528.31;;;5.48;58.58
34124;BME280;13153;52.316;21.166;2023-03-03T13:44:38;100520.63;;;5.51;59.03
34124;BME280;13153;52.316;21.166;2023-03-03T13:50:11;100517.97;;;5.50;58.88
34124;BME280;13153;52.316;21.166;2023-03-03T13:53:07;100513.56;;;5.49;58.98
34124;BME280;13153;52.316;21.166;2023-03-03T13:55:52;100518.63;;;5.46;58.71
34124;BME280;13153;52.316;21.166;2023-03-03T14:02:09;100508.84;;;5.42;59.37
34124;BME280;13153;52.316;21.166;2023-03-03T14:08:05;100511.31;;;5.39;58.88
34124;BME280;13153;52.316;21.166;2023-03-03T14:17:34;100512.44;;;5.44;58.30
34124;BME280;13153;52.316;21.166;2023-03-03T14:20:22;100508.13;;;5.44;58.71
34124;BME280;13153;52.316;21.166;2023-03-03T14:23:24;100510.72;;;5.44;58.54
34124;BME280;13153;52.316;21.166;2023-03-03T14:28:40;100518.41;;;5.41;58.55
34124;BME280;13153;52.316;21.166;2023-03-03T14:31:28;100522.06;;;5.45;58.16
34124;BME280;13153;52.316;21.166;2023-03-03T14:36:40;100526.53;;;5.47;58.29
34124;BME280;13153;52.316;21.166;2023-03-03T14:39:38;100519.44;;;5.45;58.44
34124;BME280;13153;52.316;21.166;2023-03-03T14:42:37;100521.91;;;5.42;58.60
34124;BME280;13153;52.316;21.166;2023-03-03T14:45:30;100513.25;;;5.43;58.65
34124;BME280;13153;52.316;21.166;2023-03-03T14:47:58;100512.22;;;5.39;58.33
34124;BME280;13153;52.316;21.166;2023-03-03T14:50:34;100511.16;;;5.36;58.86
34124;BME280;13153;52.316;21.166;2023-03-03T14:55:50;100507.44;;;5.30;59.12
34124;BME280;13153;52.316;21.166;2023-03-03T14:58:37;100502.38;;;5.34;58.82
34124;BME280;13153;52.316;21.166;2023-03-03T15:01:34;100507.59;;;5.34;58.84
34124;BME280;13153;52.316;21.166;2023-03-03T15:06:47;100504.81;;;5.30;58.45
34124;BME280;13153;52.316;21.166;2023-03-03T15:09:33;100502.28;;;5.32;58.56
34124;BME280;13153;52.316;21.166;2023-03-03T15:12:20;100502.22;;;5.30;58.63
34124;BME280;13153;52.316;21.166;2023-03-03T15:15:01;100502.81;;;5.25;58.38
34124;BME280;13153;52.316;21.166;2023-03-03T15:26:26;100511.00;;;5.32;58.16
34124;BME280;13153;52.316;21.166;2023-03-03T15:29:03;100509.28;;;5.33;57.88
34124;BME280;13153;52.316;21.166;2023-03-03T15:34:23;100509.38;;;5.35;57.88
34124;BME280;13153;52.316;21.166;2023-03-03T15:39:45;100506.09;;;5.39;58.14
34124;BME280;13153;52.316;21.166;2023-03-03T15:56:57;100496.09;;;5.30;58.47
34124;BME280;13153;52.316;21.166;2023-03-03T16:02:45;100502.97;;;5.28;58.85
34124;BME280;13153;52.316;21.166;2023-03-03T16:05:21;100500.13;;;5.23;59.14
34124;BME280;13153;52.316;21.166;2023-03-03T16:08:13;100496.53;;;5.21;59.05
34124;BME280;13153;52.316;21.166;2023-03-03T16:16:53;100489.53;;;5.20;58.44
34124;BME280;13153;52.316;21.166;2023-03-03T16:20:17;100492.09;;;5.19;58.62
34124;BME280;13153;52.316;21.166;2023-03-03T16:29:19;100486.00;;;5.18;58.38
34124;BME280;13153;52.316;21.166;2023-03-03T16:32:07;100475.47;;;5.17;58.28
34124;BME280;13153;52.316;21.166;2023-03-03T16:35:17;100476.97;;;5.12;58.88
34124;BME280;13153;52.316;21.166;2023-03-03T16:38:04;100481.13;;;5.08;58.30
34124;BME280;13153;52.316;21.166;2023-03-03T16:40:52;100474.22;;;5.09;58.26
34124;BME280;13153;52.316;21.166;2023-03-03T16:46:33;100467.63;;;4.99;58.18
34124;BME280;13153;52.316;21.166;2023-03-03T16:52:16;100476.44;;;5.01;58.50
34124;BME280;13153;52.316;21.166;2023-03-03T16:54:54;100474.06;;;5.06;58.20
34124;BME280;13153;52.316;21.166;2023-03-03T17:00:08;100474.56;;;4.98;57.58
34124;BME280;13153;52.316;21.166;2023-03-03T17:02:47;100485.81;;;4.97;57.90